地図

経路データ

SID SEASON NUMBER BASIN SUBBASIN NAME ISO_TIME NATURE LAT LON WMO_WIND WMO_PRES WMO_AGENCY TRACK_TYPE DIST2LAND LANDFALL IFLAG USA_AGENCY USA_ATCF_ID USA_LAT USA_LON USA_RECORD USA_STATUS USA_WIND USA_PRES USA_SSHS USA_R34_NE USA_R34_SE USA_R34_SW USA_R34_NW USA_R50_NE USA_R50_SE USA_R50_SW USA_R50_NW USA_R64_NE USA_R64_SE USA_R64_SW USA_R64_NW USA_POCI USA_ROCI USA_RMW USA_EYE TOKYO_LAT TOKYO_LON TOKYO_GRADE TOKYO_WIND TOKYO_PRES TOKYO_R50_DIR TOKYO_R50_LONG TOKYO_R50_SHORT TOKYO_R30_DIR TOKYO_R30_LONG TOKYO_R30_SHORT TOKYO_LAND CMA_LAT CMA_LON CMA_CAT CMA_WIND CMA_PRES HKO_LAT HKO_LON HKO_CAT HKO_WIND HKO_PRES NEWDELHI_LAT NEWDELHI_LON NEWDELHI_GRADE NEWDELHI_WIND NEWDELHI_PRES NEWDELHI_CI NEWDELHI_DP NEWDELHI_POCI REUNION_LAT REUNION_LON REUNION_TYPE REUNION_WIND REUNION_PRES REUNION_TNUM REUNION_CI REUNION_RMW REUNION_R34_NE REUNION_R34_SE REUNION_R34_SW REUNION_R34_NW REUNION_R50_NE REUNION_R50_SE REUNION_R50_SW REUNION_R50_NW REUNION_R64_NE REUNION_R64_SE REUNION_R64_SW REUNION_R64_NW BOM_LAT BOM_LON BOM_TYPE BOM_WIND BOM_PRES BOM_TNUM BOM_CI BOM_RMW BOM_R34_NE BOM_R34_SE BOM_R34_SW BOM_R34_NW BOM_R50_NE BOM_R50_SE BOM_R50_SW BOM_R50_NW BOM_R64_NE BOM_R64_SE BOM_R64_SW BOM_R64_NW BOM_ROCI BOM_POCI BOM_EYE BOM_POS_METHOD BOM_PRES_METHOD NADI_LAT NADI_LON NADI_CAT NADI_WIND NADI_PRES WELLINGTON_LAT WELLINGTON_LON WELLINGTON_WIND WELLINGTON_PRES DS824_LAT DS824_LON DS824_STAGE DS824_WIND DS824_PRES TD9636_LAT TD9636_LON TD9636_STAGE TD9636_WIND TD9636_PRES TD9635_LAT TD9635_LON TD9635_WIND TD9635_PRES TD9635_ROCI NEUMANN_LAT NEUMANN_LON NEUMANN_CLASS NEUMANN_WIND NEUMANN_PRES MLC_LAT MLC_LON MLC_CLASS MLC_WIND MLC_PRES USA_GUST BOM_GUST BOM_GUST_PER REUNION_GUST REUNION_GUST_PER USA_SEAHGT USA_SEARAD_NE USA_SEARAD_SE USA_SEARAD_SW USA_SEARAD_NW STORM_SPEED STORM_DIR
1866225N14298 1866 16 NA CS NOT_NAMED 1866-08-13 00:00:00 TS 14.4667 -61.9333 90 hurdat_atl main 426 425 O____________O hurdat_atl AL021866 14.7000 -62.6000 HU 90 2 14.0000 -60.6000 TD 30 14 274
1866225N14298 1866 16 NA CS NOT_NAMED 1866-08-13 03:00:00 TS 14.5158 -62.6709 main 425 425 P____________P AL021866 14.6930 -63.3500 HU 90 2 14.1615 -61.3125 TD 40 15 274
1866225N14298 1866 16 NA CS NOT_NAMED 1866-08-13 06:00:00 TS 14.5667 -63.5000 90 hurdat_atl main 438 408 O____________O hurdat_atl AL021866 14.7000 -64.1000 HU 90 2 14.3000 -62.3000 TS 50 17 274
1866225N14298 1866 16 NA CS NOT_NAMED 1866-08-13 09:00:00 TS 14.6237 -64.4667 main 405 368 P____________P AL021866 14.7348 -64.8500 HU 90 2 14.4017 -63.7001 TS 55 19 274
1866225N14298 1866 16 NA CS NOT_NAMED 1866-08-13 12:00:00 TS 14.7000 -65.4333 90 hurdat_atl main 368 346 O____________O hurdat_atl AL021866 14.8000 -65.6000 HU 90 2 14.5000 -65.1000 TS 60 17 276
1866225N14298 1866 16 NA CS NOT_NAMED 1866-08-13 15:00:00 TS 14.8110 -66.2441 main 346 335 P____________P AL021866 14.8923 -66.3500 HU 90 2 14.6486 -66.0324 TS 67 15 279
1866225N14298 1866 16 NA CS NOT_NAMED 1866-08-13 18:00:00 TS 14.9333 -67.0000 90 hurdat_atl main 335 324 O____________O hurdat_atl AL021866 15.0000 -67.1000 HU 90 2 14.8000 -66.8000 HU 75 15 278
1866225N14298 1866 16 NA CS NOT_NAMED 1866-08-13 21:00:00 TS 15.0281 -67.7835 main 330 324 P____________P AL021866 15.0923 -67.8502 HU 90 2 14.8997 -67.6503 HU 75 15 278
1866225N14298 1866 16 NA CS NOT_NAMED 1866-08-14 00:00:00 TS 15.1333 -68.5667 90 hurdat_atl main 346 327 O____________O hurdat_atl AL021866 15.2000 -68.6000 HU 90 2 15.0000 -68.5000 HU 75 15 280
1866225N14298 1866 16 NA CS NOT_NAMED 1866-08-14 03:00:00 TS 15.2831 -69.3524 main 330 282 P____________P AL021866 15.3497 -69.3499 HU 90 2 15.1498 -69.3574 HU 77 15 281
1866225N14298 1866 16 NA CS NOT_NAMED 1866-08-14 06:00:00 TS 15.4333 -70.1333 90 hurdat_atl main 282 243 O____________O hurdat_atl AL021866 15.5000 -70.1000 HU 90 2 15.3000 -70.2000 HU 80 15 280
1866225N14298 1866 16 NA CS NOT_NAMED 1866-08-14 09:00:00 TS 15.5452 -70.8727 main 240 223 P____________P AL021866 15.6068 -70.8127 HU 90 2 15.4220 -70.9925 HU 80 15 278
1866225N14298 1866 16 NA CS NOT_NAMED 1866-08-14 12:00:00 TS 15.6333 -71.6667 90 hurdat_atl main 226 219 O____________O hurdat_atl AL021866 15.7000 -71.6000 HU 90 2 15.5000 -71.8000 HU 80 17 275
1866225N14298 1866 16 NA CS NOT_NAMED 1866-08-14 15:00:00 TS 15.6998 -72.5936 main 248 248 P____________P AL021866 15.7923 -72.5478 HU 90 2 15.5148 -72.6852 HU 80 19 274
1866225N14298 1866 16 NA CS NOT_NAMED 1866-08-14 18:00:00 TS 15.7667 -73.6000 90 hurdat_atl main 247 246 O____________O hurdat_atl AL021866 15.9000 -73.6000 HU 90 2 15.5000 -73.6000 HU 80 20 274
1866225N14298 1866 16 NA CS NOT_NAMED 1866-08-14 21:00:00 TS 15.8490 -74.6335 main 257 222 P____________P AL021866 16.0349 -74.7001 HU 85 2 15.4771 -74.5003 HU 80 20 276
1866225N14298 1866 16 NA CS NOT_NAMED 1866-08-15 00:00:00 TS 15.9667 -75.6667 80 hurdat_atl main 219 190 O____________O hurdat_atl AL021866 16.2000 -75.8000 HU 80 1 15.5000 -75.4000 HU 80 20 279
1866225N14298 1866 16 NA CS NOT_NAMED 1866-08-15 03:00:00 TS 16.1396 -76.6533 main 186 156 P____________P AL021866 16.3920 -76.8300 HU 80 1 15.6346 -76.2997 HU 80 19 281
1866225N14298 1866 16 NA CS NOT_NAMED 1866-08-15 06:00:00 TS 16.3333 -77.6000 80 hurdat_atl main 162 154 O____________O hurdat_atl AL021866 16.6000 -77.8000 HU 80 1 15.8000 -77.2000 HU 80 18 281
1866225N14298 1866 16 NA CS NOT_NAMED 1866-08-15 09:00:00 TS 16.4947 -78.5252 main 178 178 P____________P AL021866 16.7995 -78.7227 HU 80 1 15.8850 -78.1304 HU 80 18 281
1866225N14298 1866 16 NA CS NOT_NAMED 1866-08-15 12:00:00 TS 16.6667 -79.4000 80 hurdat_atl main 198 198 O____________O hurdat_atl AL021866 17.0000 -79.6000 HU 80 1 16.0000 -79.0000 HU 80 17 283
1866225N14298 1866 16 NA CS NOT_NAMED 1866-08-15 15:00:00 TS 16.8803 -80.2101 main 239 239 P____________P AL021866 17.2070 -80.4501 HU 80 1 16.2269 -79.7300 HU 80 16 286
1866225N14298 1866 16 NA CS NOT_NAMED 1866-08-15 18:00:00 TS 17.1000 -81.0000 80 hurdat_atl main 301 281 O____________O hurdat_atl AL021866 17.4000 -81.3000 HU 80 1 16.5000 -80.4000 HU 80 16 285
1866225N14298 1866 16 NA CS NOT_NAMED 1866-08-15 21:00:00 TS 17.2881 -81.8335 main 281 250 P____________P AL021866 17.5573 -82.2002 HU 80 1 16.7498 -81.1002 HU 80 16 283
1866225N14298 1866 16 NA CS NOT_NAMED 1866-08-16 00:00:00 TS 17.4667 -82.6667 80 hurdat_atl main 253 223 O____________O hurdat_atl AL021866 17.7000 -83.1000 HU 80 1 17.0000 -81.8000 HU 80 16 283
1866225N14298 1866 16 NA CS NOT_NAMED 1866-08-16 03:00:00 TS 17.6394 -83.4546 main 218 216 P____________P AL021866 17.8341 -83.9280 HU 80 1 17.2498 -82.5077 HU 80 16 284
1866225N14298 1866 16 NA CS NOT_NAMED 1866-08-16 06:00:00 TS 17.8333 -84.2667 80 hurdat_atl main 216 216 O____________O hurdat_atl AL021866 18.0000 -84.8000 HU 80 1 17.5000 -83.2000 HU 80 17 284
1866225N14298 1866 16 NA CS NOT_NAMED 1866-08-16 09:00:00 TS 18.0607 -85.1660 main 246 181 P____________P AL021866 18.2350 -85.8274 HU 80 1 17.7121 -83.8433 HU 80 18 286
1866225N14298 1866 16 NA CS NOT_NAMED 1866-08-16 12:00:00 TS 18.3333 -86.1000 80 hurdat_atl main 171 71 O____________O hurdat_atl AL021866 18.5000 -86.9000 HU 80 1 18.0000 -84.5000 HU 80 19 289
1866225N14298 1866 16 NA CS NOT_NAMED 1866-08-16 15:00:00 TS 18.6587 -87.0168 main 67 0 P____________P AL021866 18.7568 -87.9077 HU 70 1 18.4624 -85.2349 HU 80 19 291
1866225N14298 1866 16 NA NA NOT_NAMED 1866-08-16 18:00:00 TS 19.0000 -87.9333 60 hurdat_atl main 0 0 O____________O hurdat_atl AL021866 19.0000 -88.9000 TS 60 0 19.0000 -86.0000 HU 80 20 288
1866225N14298 1866 16 NA NA NOT_NAMED 1866-08-16 21:00:00 TS 19.3048 -89.0614 main 0 0 P____________P AL021866 19.2148 -89.9226 TS 60 0 19.5130 -86.7544 HU 77 22 284
1866225N14298 1866 16 NA NA NOT_NAMED 1866-08-17 00:00:00 TS 19.5200 -90.2200 60 hurdat_atl main 0 0 O____________O hurdat_atl AL021866 19.4000 -90.9000 TS 60 0 20.0000 -87.5000 HU 75 22 279
1866225N14298 1866 16 NA GM NOT_NAMED 1866-08-17 03:00:00 TS 19.6338 -91.3596 main 61 61 P_____________ AL021866 19.5565 -91.7579 TS 65 1 HU 23 275
1866225N14298 1866 16 NA GM NOT_NAMED 1866-08-17 06:00:00 TS 19.7000 -92.6000 70 hurdat_atl main 123 123 O_____________ hurdat_atl AL021866 19.7000 -92.6000 HU 70 1 21 276
1866225N14298 1866 16 NA GM NOT_NAMED 1866-08-17 09:00:00 TS 19.8571 -93.5275 main 167 167 P_____________ AL021866 19.8571 -93.5275 HU 75 1 18 280
1866225N14298 1866 16 NA GM NOT_NAMED 1866-08-17 12:00:00 TS 20.0000 -94.5000 80 hurdat_atl main 162 106 O_____________ hurdat_atl AL021866 20.0000 -94.5000 HU 80 1 19 277
1866225N14298 1866 16 NA GM NOT_NAMED 1866-08-17 15:00:00 TS 20.0996 -95.4929 main 96 23 P_____________ AL021866 20.0996 -95.4929 HU 80 1 19 276
1866225N14298 1866 16 NA GM NOT_NAMED 1866-08-17 18:00:00 TS 20.2000 -96.5000 80 hurdat_atl main 15 0 O_____________ hurdat_atl AL021866 20.2000 -96.5000 HU 80 1 19 278
1866225N14298 1866 16 NA NA NOT_NAMED 1866-08-17 21:00:00 TS 20.3494 -97.4999 main 0 0 P_____________ AL021866 20.3494 -97.4999 HU 70 1 19 279
1866225N14298 1866 16 NA NA NOT_NAMED 1866-08-18 00:00:00 TS 20.5000 -98.5000 60 hurdat_atl main 0 0 O_____________ hurdat_atl AL021866 20.5000 -98.5000 TS 60 0 19 278
1866225N14298 1866 16 NA NA NOT_NAMED 1866-08-18 03:00:00 TS 20.6136 -99.4999 main 0 0 P_____________ AL021866 20.6136 -99.4999 TS 50 0 19 276
1866225N14298 1866 16 NA NA NOT_NAMED 1866-08-18 06:00:00 TS 20.7000 -100.500 40 hurdat_atl main 0 O_____________ hurdat_atl AL021866 20.7000 -100.500 TS 40 0 19 275

IBTrACS Databaseについて

本データベースは、米国NOAAが公開する1842年以降の世界の熱帯低気圧のベストトラックデータアーカイブInternational Best Track Archive for Climate Stewardship (IBTrACS)を、ウェブで閲覧しやすい形式に変換したものです。

最終更新日:2021-10-21